Time;durP1;ratioP1;P1;durP2;ratioP2;P2;SDS_P1;SDS_P2;PMS_P1;PMS_P2;Temp;Humidity;BMP_temperature;BMP_pressure;BME280_temperature;BME280_humidity;BME280_pressure;Samples;Min_cycle;Max_cycle;Signal;HPM_P1;HPM_P2
2022/10/22 00:00:11;;;;;;;15.13;13.53;;;;;;;9.23;100.00;95982.09;5016164;28;20975;-78
2022/10/22 00:02:39;;;;;;;15.50;12.57;;;;;;;8.99;100.00;95946.63;5017448;28;20416;-78
2022/10/22 00:05:05;;;;;;;12.57;11.30;;;;;;;9.06;100.00;95959.28;4999613;28;20499;-78
2022/10/22 00:07:32;;;;;;;17.60;11.10;;;;;;;9.25;100.00;95995.72;4999635;28;20817;-78
2022/10/22 00:09:59;;;;;;;13.40;12.10;;;;;;;9.11;100.00;95967.78;5015703;28;20521;-77
2022/10/22 00:12:26;;;;;;;16.03;11.90;;;;;;;9.32;100.00;95994.09;5015986;28;20570;-78
2022/10/22 00:14:53;;;;;;;12.70;11.40;;;;;;;9.14;100.00;95963.72;5015790;28;20427;-78
2022/10/22 00:17:20;;;;;;;13.40;11.43;;;;;;;9.41;100.00;95988.72;5016325;28;20431;-78
2022/10/22 00:19:46;;;;;;;12.40;11.03;;;;;;;9.21;100.00;95957.88;4999856;28;20994;-78
2022/10/22 00:22:13;;;;;;;14.43;10.70;;;;;;;9.13;100.00;95933.94;5015888;28;20858;-78
2022/10/22 00:24:40;;;;;;;11.93;10.73;;;;;;;9.34;100.00;95968.16;5015741;28;20936;-78
2022/10/22 00:27:09;;;;;;;19.13;11.50;;;;;;;9.14;100.00;95937.34;4999336;28;20482;-78
2022/10/22 00:29:35;;;;;;;19.03;11.83;;;;;;;9.00;100.00;95913.13;5015736;28;20550;-78
2022/10/22 00:32:04;;;;;;;12.97;11.63;;;;;;;9.45;100.00;95976.41;4999137;28;20443;-78
2022/10/22 00:34:30;;;;;;;12.07;10.77;;;;;;;9.32;100.00;95962.44;5015409;28;20442;-78
2022/10/22 00:36:57;;;;;;;15.33;13.93;;;;;;;9.30;100.00;95962.00;5014952;28;20447;-78
2022/10/22 00:39:25;;;;;;;12.53;11.23;;;;;;;9.43;100.00;95978.63;5015202;28;20427;-78
2022/10/22 00:41:55;;;;;;;12.70;11.33;;;;;;;9.44;100.00;95983.56;5015083;28;20502;-78
2022/10/22 00:45:02;;;;;;;17.97;11.10;;;;;;;9.45;100.00;95974.56;5016394;28;20945;-78
2022/10/22 00:47:38;;;;;;;12.03;10.80;;;;;;;9.48;100.00;95981.84;5023154;28;20419;-78
2022/10/22 00:50:08;;;;;;;12.10;10.80;;;;;;;9.29;100.00;95957.81;5026327;28;20971;-78
2022/10/22 00:52:35;;;;;;;16.40;10.80;;;;;;;9.01;100.00;95910.16;5026746;28;20455;-78
2022/10/22 00:55:03;;;;;;;11.93;10.83;;;;;;;9.34;100.00;95962.09;5028061;28;20431;-78
2022/10/22 00:57:30;;;;;;;16.70;11.90;;;;;;;9.50;100.00;95986.78;5021829;28;20442;-78
2022/10/22 00:59:57;;;;;;;16.17;12.07;;;;;;;9.42;100.00;95971.81;5019295;28;20979;-78
2022/10/22 01:02:24;;;;;;;18.83;11.27;;;;;;;9.37;100.00;95967.53;5015650;28;20451;-78
2022/10/22 01:04:50;;;;;;;13.90;11.50;;;;;;;9.54;100.00;95986.91;5015399;28;20969;-78
2022/10/22 01:07:20;;;;;;;13.60;11.60;;;;;;;9.53;100.00;95988.75;4999037;28;20829;-78
2022/10/22 01:10:12;;;;;;;15.60;12.10;;;;;;;9.53;100.00;95982.72;4999183;28;20470;-78
2022/10/22 01:12:45;;;;;;;12.73;11.33;;;;;;;9.54;100.00;95979.75;4988550;28;20431;-78
2022/10/22 01:15:32;;;;;;;13.20;11.73;;;;;;;9.57;100.00;95975.69;5016668;28;20427;-78
2022/10/22 01:18:09;;;;;;;15.23;11.47;;;;;;;9.57;100.00;95973.81;5027303;28;20476;-78
2022/10/22 01:21:14;;;;;;;18.23;12.63;;;;;;;9.58;100.00;95970.06;5003433;28;20447;-78
2022/10/22 01:24:18;;;;;;;19.40;13.60;;;;;;;9.61;100.00;95982.59;5014118;28;20650;-78
2022/10/22 01:26:44;;;;;;;15.67;12.07;;;;;;;9.57;100.00;95973.03;4997110;28;20990;-77
2022/10/22 01:29:14;;;;;;;23.70;12.67;;;;;;;9.52;100.00;95955.56;5014166;28;20877;-77
2022/10/22 01:31:45;;;;;;;15.03;12.80;;;;;;;9.47;100.00;95945.19;5013857;28;20451;-77
2022/10/22 01:34:16;;;;;;;13.83;12.40;;;;;;;9.87;100.00;95960.41;4997461;28;20980;-77
2022/10/22 01:36:45;;;;;;;14.23;12.73;;;;;;;9.49;100.00;95921.91;4997799;28;20443;-78
2022/10/22 01:39:14;;;;;;;21.37;12.90;;;;;;;9.50;100.00;95926.09;5014127;28;20561;-77
2022/10/22 01:41:44;;;;;;;14.13;10.90;;;;;;;9.97;100.00;95962.63;5015559;28;20538;-78
2022/10/22 01:44:34;;;;;;;14.37;12.87;;;;;;;9.87;100.00;95966.44;5013909;28;20427;-78
2022/10/22 01:47:06;;;;;;;13.83;11.80;;;;;;;9.84;100.00;95964.47;4998245;28;20467;-78
2022/10/22 01:49:52;;;;;;;12.77;10.80;;;;;;;9.61;100.00;95942.25;4997302;28;20462;-78
2022/10/22 01:52:46;;;;;;;15.20;12.70;;;;;;;9.75;100.00;95963.84;5013460;28;20818;-77
2022/10/22 01:55:51;;;;;;;12.60;11.40;;;;;;;9.73;100.00;95960.72;5013316;28;20451;-78
2022/10/22 01:58:54;;;;;;;12.20;10.83;;;;;;;9.71;100.00;95955.00;5012958;28;20447;-78
2022/10/22 02:01:39;;;;;;;13.53;10.57;;;;;;;9.58;100.00;95929.72;4974767;28;20832;-78
2022/10/22 02:04:34;;;;;;;16.40;10.30;;;;;;;9.52;100.00;95923.88;5014319;28;20473;-78
2022/10/22 02:07:05;;;;;;;16.80;11.87;;;;;;;9.77;100.00;95943.16;5013260;28;20462;-78
2022/10/22 02:09:34;;;;;;;15.23;11.43;;;;;;;9.52;100.00;95915.19;5012914;28;20525;-78
2022/10/22 02:12:06;;;;;;;15.10;12.00;;;;;;;9.58;100.00;95914.66;5012969;28;20550;-78
2022/10/22 02:14:35;;;;;;;17.20;12.20;;;;;;;9.47;100.00;95895.06;5013169;28;20443;-78
2022/10/22 02:17:06;;;;;;;14.47;10.77;;;;;;;9.61;100.00;95918.50;5012798;28;20460;-78
2022/10/22 02:19:40;;;;;;;12.57;10.63;;;;;;;9.65;100.00;95932.59;5012472;28;20554;-78
2022/10/22 02:22:07;;;;;;;14.27;12.67;;;;;;;9.22;100.00;95869.78;5012411;28;20848;-78
2022/10/22 02:24:34;;;;;;;15.00;12.97;;;;;;;9.47;100.00;95885.28;5012629;28;20427;-77
2022/10/22 02:27:19;;;;;;;13.37;12.17;;;;;;;9.66;100.00;95915.66;5013365;28;20459;-77
2022/10/22 02:30:07;;;;;;;13.83;11.53;;;;;;;9.69;100.00;95912.34;5011628;28;20474;-77
2022/10/22 02:32:42;;;;;;;14.10;12.70;;;;;;;9.72;100.00;95915.09;5012443;28;20795;-78
2022/10/22 02:35:12;;;;;;;29.00;15.70;;;;;;;9.72;100.00;95915.09;5012229;28;20505;-78
2022/10/22 02:37:40;;;;;;;30.10;18.00;;;;;;;9.58;100.00;95884.84;5012031;28;20435;-78
2022/10/22 02:40:07;;;;;;;28.50;18.47;;;;;;;9.52;100.00;95875.63;4996104;28;20557;-78
2022/10/22 02:42:36;;;;;;;21.57;14.70;;;;;;;9.71;100.00;95902.22;5011973;28;21022;-78
2022/10/22 02:45:04;;;;;;;29.03;19.40;;;;;;;9.63;100.00;95884.63;4995723;28;20439;-78
2022/10/22 02:47:30;;;;;;;29.80;19.07;;;;;;;9.76;100.00;95908.06;5012196;28;20910;-77
2022/10/22 02:49:57;;;;;;;24.60;16.17;;;;;;;9.78;100.00;95908.50;5013385;28;20830;-78
2022/10/22 02:52:24;;;;;;;28.10;16.00;;;;;;;9.60;100.00;95890.56;5011904;28;20554;-77
2022/10/22 02:54:51;;;;;;;23.17;15.50;;;;;;;9.73;100.00;95910.56;5013359;28;20442;-77
2022/10/22 02:57:17;;;;;;;25.00;14.10;;;;;;;9.69;100.00;95921.03;5012092;28;21024;-78
2022/10/22 02:59:44;;;;;;;18.20;12.83;;;;;;;9.81;100.00;95948.53;5013400;28;20451;-77
2022/10/22 03:02:11;;;;;;;19.00;14.20;;;;;;;9.74;100.00;95933.22;5011896;28;20546;-78
2022/10/22 03:04:39;;;;;;;18.70;13.60;;;;;;;9.71;100.00;95939.94;5013431;28;20873;-78
2022/10/22 03:07:05;;;;;;;21.07;14.53;;;;;;;9.48;100.00;95909.78;5011711;28;20463;-77
2022/10/22 03:09:32;;;;;;;17.93;14.83;;;;;;;9.45;100.00;95921.78;4996273;28;20486;-78
2022/10/22 03:11:59;;;;;;;23.53;14.57;;;;;;;9.51;100.00;95927.63;5013470;28;20434;-77
2022/10/22 03:14:25;;;;;;;16.47;14.67;;;;;;;9.50;100.00;95930.59;5011979;28;20939;-77
2022/10/22 03:16:52;;;;;;;18.77;14.33;;;;;;;9.47;100.00;95924.84;5012299;28;20851;-77
2022/10/22 03:19:19;;;;;;;20.13;14.07;;;;;;;9.61;100.00;95926.41;5013926;28;20423;-77
2022/10/22 03:22:02;;;;;;;16.10;13.93;;;;;;;9.64;100.00;95912.56;5023828;28;20526;-78
2022/10/22 03:24:38;;;;;;;16.20;13.37;;;;;;;9.29;100.00;95862.84;5023031;28;20931;-77
2022/10/22 03:27:05;;;;;;;15.83;13.17;;;;;;;9.61;100.00;95923.78;5011585;28;20561;-77
2022/10/22 03:29:36;;;;;;;18.37;13.70;;;;;;;9.19;100.00;95850.84;5022567;28;20463;-77
2022/10/22 03:32:02;;;;;;;16.10;14.37;;;;;;;9.38;100.00;95876.72;5023091;28;20443;-77
2022/10/22 03:34:29;;;;;;;15.83;12.47;;;;;;;9.50;100.00;95891.78;5005628;28;20443;-78
2022/10/22 03:36:59;;;;;;;16.00;14.40;;;;;;;9.39;100.00;95872.22;5015442;28;20438;-78
2022/10/22 03:39:27;;;;;;;16.13;13.00;;;;;;;9.28;100.00;95845.47;5013237;28;20446;-77
2022/10/22 03:41:54;;;;;;;18.00;12.93;;;;;;;9.55;100.00;95896.84;5012396;28;20431;-78
2022/10/22 03:44:22;;;;;;;17.77;13.87;;;;;;;9.48;100.00;95897.41;5012007;28;20465;-77
2022/10/22 03:46:50;;;;;;;15.30;12.83;;;;;;;9.44;100.00;95885.16;5011908;28;20466;-78
2022/10/22 03:49:16;;;;;;;12.90;11.60;;;;;;;9.28;100.00;95858.66;5015413;28;20932;-77
2022/10/22 03:51:43;;;;;;;15.00;12.97;;;;;;;9.58;100.00;95903.31;5015862;28;20445;-77
2022/10/22 03:54:09;;;;;;;13.00;11.70;;;;;;;9.50;100.00;95888.38;4999079;28;20443;-77
2022/10/22 03:56:36;;;;;;;15.23;12.57;;;;;;;9.55;100.00;95885.50;5031854;28;20434;-78
2022/10/22 03:59:03;;;;;;;15.90;13.00;;;;;;;9.52;100.00;95891.44;5015322;28;20450;-77
2022/10/22 04:01:30;;;;;;;18.20;13.33;;;;;;;9.68;100.00;95911.56;5014897;28;20979;-78
2022/10/22 04:03:57;;;;;;;14.17;12.20;;;;;;;9.77;100.00;95937.88;4997913;28;20487;-77
2022/10/22 04:06:24;;;;;;;14.40;12.20;;;;;;;9.57;100.00;95915.75;5015155;28;20477;-77
2022/10/22 04:08:51;;;;;;;16.17;13.97;;;;;;;9.72;100.00;95940.72;5016428;28;20490;-77
2022/10/22 04:11:18;;;;;;;14.23;12.83;;;;;;;9.43;100.00;95908.16;5016381;28;20489;-78
2022/10/22 04:13:44;;;;;;;14.20;12.70;;;;;;;9.37;100.00;95900.78;5015065;28;20473;-77
2022/10/22 04:16:17;;;;;;;14.70;13.30;;;;;;;9.49;100.00;95932.47;5015984;28;20419;-77
2022/10/22 04:18:46;;;;;;;14.50;13.00;;;;;;;9.44;100.00;95932.66;4998864;28;20903;-78
2022/10/22 04:21:14;;;;;;;15.40;12.03;;;;;;;9.65;100.00;95982.75;5015784;28;20458;-78
2022/10/22 04:23:46;;;;;;;13.77;12.37;;;;;;;9.62;100.00;95986.03;5014903;28;20451;-77
2022/10/22 04:26:13;;;;;;;13.37;11.97;;;;;;;9.41;100.00;95960.47;5014477;28;20497;-77
2022/10/22 04:28:40;;;;;;;16.00;12.70;;;;;;;9.63;100.00;95998.91;5014838;28;20438;-77
2022/10/22 04:31:12;;;;;;;16.33;13.60;;;;;;;9.57;100.00;95981.72;5014211;28;20467;-77
2022/10/22 04:33:41;;;;;;;14.17;12.77;;;;;;;9.76;100.00;96010.25;5014454;28;20472;-77
2022/10/22 04:36:26;;;;;;;13.73;12.33;;;;;;;9.92;100.00;96031.50;5015661;28;20999;-77
2022/10/22 04:38:55;;;;;;;16.50;13.40;;;;;;;9.63;100.00;96014.75;5014970;28;20475;-77
2022/10/22 04:41:28;;;;;;;15.30;12.97;;;;;;;9.59;100.00;96008.56;4993520;28;20984;-78
2022/10/22 04:43:55;;;;;;;14.23;11.83;;;;;;;9.71;100.00;96028.94;5011193;28;20448;-77
2022/10/22 04:46:24;;;;;;;15.17;12.30;;;;;;;9.68;100.00;96032.22;4994580;28;20470;-77
2022/10/22 04:48:51;;;;;;;13.80;12.23;;;;;;;9.69;100.00;96039.03;5014300;28;20455;-77
2022/10/22 04:51:21;;;;;;;14.67;12.53;;;;;;;9.63;100.00;96020.03;5011012;28;20529;-77
2022/10/22 04:53:48;;;;;;;16.00;12.70;;;;;;;9.61;100.00;96005.59;4997693;28;20451;-77
2022/10/22 04:56:19;;;;;;;15.60;13.00;;;;;;;9.66;100.00;96011.44;5014103;28;21065;-77
2022/10/22 04:58:47;;;;;;;16.93;13.70;;;;;;;9.68;100.00;96016.38;5015032;28;20428;-77
2022/10/22 05:01:25;;;;;;;14.10;12.63;;;;;;;9.62;100.00;96013.19;5013872;28;20538;-77
2022/10/22 05:03:54;;;;;;;13.97;12.27;;;;;;;9.41;100.00;95975.53;5014832;28;20431;-77
2022/10/22 05:06:22;;;;;;;13.90;12.43;;;;;;;9.57;100.00;96005.47;5014917;28;20477;-77
2022/10/22 05:09:01;;;;;;;15.67;14.10;;;;;;;9.63;100.00;96013.97;5013601;28;20441;-78
2022/10/22 05:11:30;;;;;;;16.33;14.63;;;;;;;9.28;100.00;95963.41;5013411;28;20542;-77
2022/10/22 05:13:58;;;;;;;16.30;14.07;;;;;;;9.42;100.00;95990.28;4994513;28;20440;-77
2022/10/22 05:16:28;;;;;;;15.97;13.60;;;;;;;9.55;100.00;96014.81;5007055;28;20429;-77
2022/10/22 05:18:56;;;;;;;14.60;12.83;;;;;;;9.65;100.00;96022.34;5010119;28;20444;-78
2022/10/22 05:21:23;;;;;;;14.20;12.50;;;;;;;9.65;100.00;96027.59;5007278;28;20467;-78
2022/10/22 05:23:50;;;;;;;16.00;14.37;;;;;;;9.79;100.00;96025.44;5013314;28;20443;-78
2022/10/22 05:26:19;;;;;;;16.23;13.60;;;;;;;9.83;100.00;96034.22;5014878;28;20431;-77
2022/10/22 05:28:48;;;;;;;14.17;12.13;;;;;;;9.58;100.00;96014.16;4997104;28;20435;-78
2022/10/22 05:31:16;;;;;;;14.60;12.40;;;;;;;9.60;100.00;96020.66;4997050;28;20459;-78
2022/10/22 05:33:43;;;;;;;19.80;12.90;;;;;;;9.52;100.00;96010.22;5013335;28;20450;-77
2022/10/22 05:36:13;;;;;;;20.70;13.27;;;;;;;9.75;100.00;96037.75;5013257;28;20469;-77
2022/10/22 05:38:40;;;;;;;15.70;13.87;;;;;;;9.65;100.00;96030.25;5014712;28;20522;-78
2022/10/22 05:41:12;;;;;;;21.80;19.50;;;;;;;9.88;100.00;96075.47;5012950;28;20455;-77
2022/10/22 05:43:39;;;;;;;23.63;21.23;;;;;;;9.83;100.00;96078.34;5013183;28;20427;-77
2022/10/22 05:46:12;;;;;;;26.07;20.53;;;;;;;9.82;100.00;96082.09;5013257;28;20538;-77
2022/10/22 05:48:39;;;;;;;26.47;19.80;;;;;;;9.87;100.00;96079.22;4997072;28;20427;-77
2022/10/22 05:51:08;;;;;;;17.70;15.60;;;;;;;9.72;100.00;96067.44;5019988;28;20471;-77
2022/10/22 05:53:37;;;;;;;21.23;18.17;;;;;;;9.86;100.00;96085.59;5024884;28;20436;-77
2022/10/22 05:56:07;;;;;;;18.87;16.90;;;;;;;9.50;100.00;96036.16;5023780;28;20507;-77
2022/10/22 05:58:35;;;;;;;20.87;18.43;;;;;;;9.59;100.00;96040.22;5007365;28;20455;-77
2022/10/22 06:01:07;;;;;;;20.23;17.87;;;;;;;9.76;100.00;96077.03;5022958;28;20538;-77
2022/10/22 06:03:34;;;;;;;20.57;18.33;;;;;;;9.56;100.00;96066.50;5024497;28;20441;-77
2022/10/22 06:06:23;;;;;;;23.50;19.50;;;;;;;9.71;100.00;96074.56;5034118;28;20897;-77
2022/10/22 06:08:52;;;;;;;25.13;18.60;;;;;;;9.70;100.00;96090.75;5007066;28;20490;-77
2022/10/22 06:11:21;;;;;;;20.00;17.43;;;;;;;9.17;100.00;96010.53;5012244;28;20475;-77
2022/10/22 06:13:49;;;;;;;19.40;16.17;;;;;;;9.67;100.00;96092.16;5012934;28;20447;-77
2022/10/22 06:16:16;;;;;;;24.70;17.73;;;;;;;9.45;100.00;96069.53;5014260;28;20541;-78
2022/10/22 06:18:42;;;;;;;19.40;17.23;;;;;;;9.50;100.00;96057.25;5025841;28;20561;-77
2022/10/22 06:21:11;;;;;;;20.80;18.17;;;;;;;9.23;100.00;96040.13;5012613;28;20474;-78
2022/10/22 06:23:39;;;;;;;17.87;15.70;;;;;;;9.60;100.00;96088.50;5028948;28;20458;-77
2022/10/22 06:26:07;;;;;;;17.47;15.50;;;;;;;9.64;100.00;96097.34;4996652;28;21049;-77
2022/10/22 06:28:34;;;;;;;19.63;16.23;;;;;;;9.55;100.00;96072.88;4996150;28;20479;-77
2022/10/22 06:31:02;;;;;;;21.93;17.17;;;;;;;9.51;100.00;96079.91;5013310;28;20784;-77
2022/10/22 06:33:31;;;;;;;16.70;15.00;;;;;;;9.64;100.00;96099.97;5014118;28;20521;-77
2022/10/22 06:36:23;;;;;;;21.13;15.43;;;;;;;9.62;100.00;96100.31;4996039;28;20457;-77
2022/10/22 06:38:52;;;;;;;18.37;16.07;;;;;;;9.61;100.00;96092.69;5009909;28;20810;-77
2022/10/22 06:41:19;;;;;;;17.80;15.87;;;;;;;9.56;100.00;96075.19;5012193;28;20502;-78
2022/10/22 06:43:52;;;;;;;17.00;14.70;;;;;;;9.68;100.00;96096.34;5012757;28;21011;-78
2022/10/22 06:46:20;;;;;;;17.57;14.57;;;;;;;9.79;100.00;96107.28;5012652;28;20481;-77
2022/10/22 06:48:49;;;;;;;13.80;12.23;;;;;;;9.58;100.00;96082.78;5014272;28;20463;-78
2022/10/22 06:51:17;;;;;;;16.23;13.73;;;;;;;9.68;100.00;96095.59;5012655;28;20467;-78
2022/10/22 06:53:44;;;;;;;16.27;14.60;;;;;;;9.65;100.00;96099.66;5012640;28;20491;-77
2022/10/22 06:56:13;;;;;;;16.27;14.57;;;;;;;9.81;100.00;96122.78;5015340;28;20506;-77
2022/10/22 06:58:40;;;;;;;18.30;15.17;;;;;;;9.44;100.00;96068.00;5002947;28;20806;-77
2022/10/22 07:01:11;;;;;;;9.93;8.93;;;;;;;9.93;100.00;96114.91;5028287;28;20462;-77
2022/10/22 07:03:38;;;;;;;14.00;12.43;;;;;;;9.80;100.00;96095.63;5012080;28;20558;-77
2022/10/22 07:06:08;;;;;;;12.63;11.53;;;;;;;9.82;100.00;96098.69;5011813;28;20447;-77
2022/10/22 07:08:35;;;;;;;14.57;13.17;;;;;;;10.11;100.00;96161.16;4995410;28;20482;-77
2022/10/22 07:11:12;;;;;;;12.67;10.83;;;;;;;10.12;100.00;96157.41;5012143;28;20464;-77
2022/10/22 07:13:39;;;;;;;12.57;11.30;;;;;;;10.04;100.00;96143.22;5012558;28;20538;-77
2022/10/22 07:16:07;;;;;;;14.87;12.07;;;;;;;10.21;100.00;96167.91;4992318;28;20800;-78
2022/10/22 07:18:35;;;;;;;12.20;11.00;;;;;;;10.05;100.00;96159.84;4996825;28;20439;-78
2022/10/22 07:21:01;;;;;;;15.50;11.60;;;;;;;10.14;100.00;96175.59;4996287;28;20873;-78
2022/10/22 07:23:29;;;;;;;15.77;11.20;;;;;;;9.87;100.00;96138.09;5014829;28;20458;-78
2022/10/22 07:25:56;;;;;;;15.03;12.97;;;;;;;9.90;100.00;96134.81;5001290;28;20447;-78
2022/10/22 07:28:23;;;;;;;14.27;11.13;;;;;;;9.99;100.00;96148.69;5017359;28;20485;-77
2022/10/22 07:30:50;;;;;;;13.43;12.00;;;;;;;10.27;100.00;96185.13;5017749;28;21014;-78
2022/10/22 07:33:17;;;;;;;13.00;11.13;;;;;;;10.28;100.00;96174.25;5017526;28;20451;-77
2022/10/22 07:35:43;;;;;;;14.03;11.70;;;;;;;10.50;100.00;96173.03;5000741;28;20534;-78
2022/10/22 07:38:10;;;;;;;12.07;10.90;;;;;;;10.76;100.00;96201.06;5016849;28;20466;-78
2022/10/22 07:40:37;;;;;;;12.93;11.53;;;;;;;10.68;100.00;96178.88;5015749;28;20466;-78
2022/10/22 07:43:03;;;;;;;11.33;10.23;;;;;;;10.86;100.00;96209.31;5018501;28;20538;-77
2022/10/22 07:45:30;;;;;;;12.03;10.60;;;;;;;10.82;100.00;96182.00;5016579;28;20447;-78
2022/10/22 07:47:58;;;;;;;16.33;11.93;;;;;;;10.80;100.00;96184.19;5016524;28;20477;-78
2022/10/22 07:50:25;;;;;;;11.83;10.63;;;;;;;10.69;100.00;96169.09;5024455;28;20520;-78
2022/10/22 07:52:52;;;;;;;10.60;9.67;;;;;;;10.76;100.00;96166.66;5017306;28;20427;-78
2022/10/22 07:55:23;;;;;;;11.73;8.03;;;;;;;11.02;100.00;96206.00;5000257;28;20467;-78
2022/10/22 07:57:49;;;;;;;8.90;8.00;;;;;;;10.91;100.00;96192.44;5016590;28;20427;-78
2022/10/22 08:00:17;;;;;;;10.17;7.93;;;;;;;10.98;100.00;96197.22;5018261;28;21050;-78
2022/10/22 08:02:48;;;;;;;8.80;8.00;;;;;;;11.29;100.00;96231.78;5016820;28;20419;-78
2022/10/22 08:05:15;;;;;;;7.80;5.80;;;;;;;11.27;100.00;96239.31;5017877;28;20465;-78
2022/10/22 08:07:42;;;;;;;5.70;5.10;;;;;;;11.22;100.00;96213.84;4999566;28;20466;-78
2022/10/22 08:10:09;;;;;;;5.27;4.60;;;;;;;11.21;100.00;96209.63;5018825;28;20475;-78
2022/10/22 08:12:37;;;;;;;6.33;5.83;;;;;;;11.52;100.00;96246.13;5009241;28;20447;-78
2022/10/22 08:15:05;;;;;;;5.03;4.27;;;;;;;11.59;100.00;96248.19;5025429;28;20499;-79
2022/10/22 08:17:31;;;;;;;5.30;3.43;;;;;;;11.33;100.00;96195.59;5026346;28;20449;-78
2022/10/22 08:20:01;;;;;;;4.10;3.80;;;;;;;11.63;100.00;96238.47;5023653;28;20562;-77
2022/10/22 08:22:28;;;;;;;12.50;5.53;;;;;;;11.53;100.00;96212.47;5005720;28;20497;-78
2022/10/22 08:24:54;;;;;;;6.53;4.57;;;;;;;11.72;100.00;96230.38;4998491;28;20936;-77
2022/10/22 08:27:21;;;;;;;3.50;3.20;;;;;;;11.86;100.00;96267.91;5016011;28;20489;-77
2022/10/22 08:29:48;;;;;;;4.07;2.73;;;;;;;11.91;100.00;96274.88;5014814;28;20447;-77
2022/10/22 08:32:14;;;;;;;7.10;2.50;;;;;;;11.69;100.00;96257.56;4999642;28;20533;-78
2022/10/22 08:34:41;;;;;;;3.50;2.60;;;;;;;11.57;100.00;96249.63;5017905;28;20427;-78
2022/10/22 08:37:09;;;;;;;5.97;2.30;;;;;;;11.79;100.00;96284.38;5015979;28;20420;-78
2022/10/22 08:39:36;;;;;;;3.60;2.80;;;;;;;11.94;100.00;96304.09;5015053;28;20538;-78
2022/10/22 08:42:35;;;;;;;2.47;2.27;;;;;;;11.79;100.00;96289.69;5015074;28;20485;-77
2022/10/22 08:45:01;;;;;;;3.40;2.80;;;;;;;12.01;100.00;96306.16;5002642;28;20473;-78
2022/10/22 08:47:34;;;;;;;3.00;2.70;;;;;;;12.07;100.00;96310.91;5014977;28;20510;-78
2022/10/22 08:50:01;;;;;;;3.17;2.90;;;;;;;11.73;100.00;96261.06;5014991;28;20459;-78
2022/10/22 08:52:31;;;;;;;3.30;3.10;;;;;;;12.11;100.00;96317.09;5016120;28;20449;-78
2022/10/22 08:55:01;;;;;;;3.27;2.97;;;;;;;12.06;100.00;96324.50;5014910;28;20435;-78
2022/10/22 08:57:54;;;;;;;2.80;2.50;;;;;;;12.06;100.00;96325.28;5014815;28;20482;-77
2022/10/22 09:00:35;;;;;;;5.43;2.67;;;;;;;11.76;100.00;96285.03;5014846;28;20478;-78
2022/10/22 09:03:05;;;;;;;3.70;3.40;;;;;;;12.00;100.00;96323.94;4987648;28;20835;-78
2022/10/22 09:06:12;;;;;;;5.00;3.40;;;;;;;12.01;100.00;96322.84;5014872;28;20470;-78
2022/10/22 09:08:42;;;;;;;5.23;2.90;;;;;;;12.10;100.00;96322.72;5014088;28;20912;-78
2022/10/22 09:11:11;;;;;;;2.60;2.40;;;;;;;12.22;100.00;96335.16;4997876;28;20463;-78
2022/10/22 09:13:44;;;;;;;3.80;2.43;;;;;;;12.20;100.00;96334.75;5014359;28;20459;-78
2022/10/22 09:16:29;;;;;;;3.20;2.90;;;;;;;12.35;100.00;96339.31;4998091;28;20474;-78
2022/10/22 09:19:04;;;;;;;4.63;2.50;;;;;;;12.16;100.00;96328.56;5013895;28;20502;-78
2022/10/22 09:22:08;;;;;;;2.53;2.33;;;;;;;11.84;100.00;96278.84;5018793;28;20509;-78
2022/10/22 09:24:59;;;;;;;3.00;2.30;;;;;;;12.29;100.00;96320.25;5013965;28;21026;-78
2022/10/22 09:27:28;;;;;;;2.67;2.47;;;;;;;12.03;100.00;96293.38;5003399;28;20469;-78
2022/10/22 09:29:56;;;;;;;2.67;1.73;;;;;;;11.81;100.00;96270.81;5009897;28;20482;-78
2022/10/22 09:32:24;;;;;;;4.17;2.20;;;;;;;12.29;100.00;96317.59;4997573;28;20542;-78
2022/10/22 09:34:55;;;;;;;1.43;1.33;;;;;;;12.14;100.00;96323.59;5013706;28;20431;-78
2022/10/22 09:37:26;;;;;;;4.53;4.13;;;;;;;12.27;100.00;96300.47;5015462;28;20427;-78
2022/10/22 09:39:55;;;;;;;3.30;2.10;;;;;;;12.59;100.00;96335.81;5013371;28;20467;-78
2022/10/22 09:42:22;;;;;;;2.90;1.57;;;;;;;12.65;100.00;96331.78;5013492;28;20453;-78
2022/10/22 09:44:56;;;;;;;4.63;1.63;;;;;;;12.49;100.00;96317.72;5016985;28;20441;-78
2022/10/22 09:47:41;;;;;;;2.07;1.43;;;;;;;12.79;100.00;96342.78;5020268;28;20447;-78
2022/10/22 09:50:46;;;;;;;1.63;1.50;;;;;;;13.03;100.00;96353.28;5014177;28;20463;-79
2022/10/22 09:53:17;;;;;;;1.77;1.67;;;;;;;13.13;100.00;96357.31;4949297;29;20442;-78
2022/10/22 09:55:50;;;;;;;1.83;1.70;;;;;;;13.17;100.00;96358.16;5034109;28;20439;-78
2022/10/22 09:58:17;;;;;;;2.60;1.47;;;;;;;13.14;100.00;96326.22;5030305;28;20529;-78
2022/10/22 10:00:50;;;;;;;1.90;1.70;;;;;;;13.46;100.00;96362.31;5031460;28;20455;-78
2022/10/22 10:03:21;;;;;;;2.83;1.80;;;;;;;13.44;100.00;96375.16;5025350;28;20437;-78
2022/10/22 10:05:51;;;;;;;1.50;1.40;;;;;;;13.27;100.00;96362.22;5015028;28;20443;-80
2022/10/22 10:08:18;;;;;;;1.80;1.70;;;;;;;13.28;100.00;96361.88;5014438;28;20488;-79
2022/10/22 10:10:52;;;;;;;4.07;1.77;;;;;;;13.21;100.00;96361.69;4985805;28;20482;-79
2022/10/22 10:13:34;;;;;;;1.70;1.60;;;;;;;13.45;100.00;96389.97;4998352;28;20518;-78
2022/10/22 10:16:06;;;;;;;2.07;1.83;;;;;;;13.54;100.00;96381.84;5014560;28;20473;-79
2022/10/22 10:18:56;;;;;;;1.80;1.70;;;;;;;13.74;100.00;96383.44;5030365;28;20437;-79
2022/10/22 10:22:01;;;;;;;2.37;1.50;;;;;;;13.81;100.00;96390.84;5014666;28;20463;-81
2022/10/22 10:24:30;;;;;;;3.80;2.03;;;;;;;13.64;100.00;96393.84;4999666;28;20530;-81
2022/10/22 10:27:04;;;;;;;2.27;1.60;;;;;;;13.52;100.00;96390.16;5017651;28;20947;-81
2022/10/22 10:30:02;;;;;;;1.87;1.40;;;;;;;13.58;100.00;96391.44;5015455;28;20469;-80
2022/10/22 10:32:54;;;;;;;3.00;1.33;;;;;;;13.61;100.00;96398.72;5008151;28;20474;-80
2022/10/22 10:35:26;;;;;;;1.90;1.70;;;;;;;13.66;100.00;96395.06;4988217;28;20435;-79
2022/10/22 10:38:15;;;;;;;2.90;1.40;;;;;;;13.68;100.00;96406.09;5032488;28;20455;-79
2022/10/22 10:40:54;;;;;;;1.43;1.30;;;;;;;13.55;100.00;96362.91;5014903;28;20967;-80
2022/10/22 10:43:23;;;;;;;3.00;1.00;;;;;;;13.87;100.00;96400.84;5005806;28;20416;-81
2022/10/22 10:46:03;;;;;;;2.37;1.00;;;;;;;14.08;100.00;96405.09;5015631;28;20431;-80
2022/10/22 10:48:47;;;;;;;1.40;1.30;;;;;;;14.06;100.00;96376.22;5019160;28;20451;-80
2022/10/22 10:51:23;;;;;;;1.83;1.60;;;;;;;14.28;100.00;96400.59;5027214;28;20467;-80
2022/10/22 10:54:06;;;;;;;2.93;1.40;;;;;;;14.41;100.00;96399.34;5018130;28;20525;-80
2022/10/22 10:56:44;;;;;;;1.43;1.30;;;;;;;13.83;100.00;96336.22;5018419;28;20519;-80
2022/10/22 10:59:35;;;;;;;2.77;1.23;;;;;;;14.32;100.00;96404.09;5022348;28;20407;-80
2022/10/22 11:02:21;;;;;;;2.33;1.17;;;;;;;14.19;100.00;96400.78;5022760;28;20470;-80
2022/10/22 11:05:10;;;;;;;1.90;1.70;;;;;;;14.29;100.00;96407.44;5023263;28;20958;-80
2022/10/22 11:08:00;;;;;;;1.50;1.40;;;;;;;14.46;100.00;96399.88;5010809;28;20530;-81
2022/10/22 11:10:39;;;;;;;2.23;1.27;;;;;;;14.48;100.00;96418.16;5022854;28;21021;-80
2022/10/22 11:13:38;;;;;;;1.30;1.10;;;;;;;14.44;100.00;96390.72;5022847;28;20429;-80
2022/10/22 11:16:31;;;;;;;2.40;1.17;;;;;;;14.52;100.00;96387.06;5012557;28;20447;-80
2022/10/22 11:19:04;;;;;;;2.57;1.00;;;;;;;14.75;100.00;96414.53;5026318;28;20514;-80
2022/10/22 11:21:48;;;;;;;1.73;1.13;;;;;;;14.53;100.00;96371.88;5022131;28;20536;-82
2022/10/22 11:24:42;;;;;;;2.77;2.30;;;;;;;15.00;100.00;96411.56;5002507;28;20837;-81
2022/10/22 11:27:17;;;;;;;2.97;1.17;;;;;;;14.78;100.00;96411.16;5011756;28;20441;-81
2022/10/22 11:29:51;;;;;;;2.43;1.20;;;;;;;14.84;100.00;96414.31;5026678;28;20466;-81
2022/10/22 11:32:21;;;;;;;1.93;1.67;;;;;;;15.18;100.00;96399.34;5039867;28;20799;-81
2022/10/22 11:34:53;;;;;;;2.17;1.43;;;;;;;15.06;100.00;96384.28;5021995;28;20426;-81
2022/10/22 11:37:23;;;;;;;3.47;1.50;;;;;;;14.84;100.00;96369.06;4995018;28;20531;-81
2022/10/22 11:39:52;;;;;;;4.87;1.93;;;;;;;15.22;100.00;96405.50;5021891;28;20452;-81
2022/10/22 11:42:32;;;;;;;1.70;1.60;;;;;;;15.06;100.00;96410.91;5021557;28;20521;-81